sensor_id;sensor_type;location;lat;lon;timestamp;P1;durP1;ratioP1;P2;durP2;ratioP2
64932;SDS011;51446;53.850;10.662;2023-08-01T00:00:57;1.52;;;1.42;;
64932;SDS011;51446;53.850;10.662;2023-08-01T00:03:22;2.00;;;1.20;;
64932;SDS011;51446;53.850;10.662;2023-08-01T00:05:47;2.37;;;1.50;;
64932;SDS011;51446;53.850;10.662;2023-08-01T00:08:13;3.50;;;2.47;;
64932;SDS011;51446;53.850;10.662;2023-08-01T00:10:39;3.00;;;1.40;;
64932;SDS011;51446;53.850;10.662;2023-08-01T00:13:08;1.70;;;1.50;;
64932;SDS011;51446;53.850;10.662;2023-08-01T00:15:34;3.15;;;1.40;;
64932;SDS011;51446;53.850;10.662;2023-08-01T00:17:59;2.03;;;1.67;;
64932;SDS011;51446;53.850;10.662;2023-08-01T00:20:25;1.47;;;1.37;;
64932;SDS011;51446;53.850;10.662;2023-08-01T00:22:50;1.73;;;1.40;;
64932;SDS011;51446;53.850;10.662;2023-08-01T00:25:16;2.00;;;1.60;;
64932;SDS011;51446;53.850;10.662;2023-08-01T00:27:42;2.88;;;1.50;;
64932;SDS011;51446;53.850;10.662;2023-08-01T00:30:07;1.93;;;1.37;;
64932;SDS011;51446;53.850;10.662;2023-08-01T00:32:33;2.13;;;1.50;;
64932;SDS011;51446;53.850;10.662;2023-08-01T00:34:59;1.50;;;1.40;;
64932;SDS011;51446;53.850;10.662;2023-08-01T00:37:24;1.93;;;1.20;;
64932;SDS011;51446;53.850;10.662;2023-08-01T00:39:49;3.20;;;1.40;;
64932;SDS011;51446;53.850;10.662;2023-08-01T00:42:15;2.03;;;1.30;;
64932;SDS011;51446;53.850;10.662;2023-08-01T00:44:41;1.98;;;1.10;;
64932;SDS011;51446;53.850;10.662;2023-08-01T00:47:06;1.17;;;1.07;;
64932;SDS011;51446;53.850;10.662;2023-08-01T00:49:32;1.38;;;1.10;;
64932;SDS011;51446;53.850;10.662;2023-08-01T00:51:57;1.20;;;1.10;;
64932;SDS011;51446;53.850;10.662;2023-08-01T00:54:22;1.77;;;1.20;;
64932;SDS011;51446;53.850;10.662;2023-08-01T00:56:48;1.23;;;1.13;;
64932;SDS011;51446;53.850;10.662;2023-08-01T00:59:13;1.77;;;1.30;;
64932;SDS011;51446;53.850;10.662;2023-08-01T01:01:38;1.10;;;1.00;;
64932;SDS011;51446;53.850;10.662;2023-08-01T01:04:04;1.33;;;1.20;;
64932;SDS011;51446;53.850;10.662;2023-08-01T01:06:33;2.70;;;0.90;;
64932;SDS011;51446;53.850;10.662;2023-08-01T01:09:17;7.53;;;1.20;;
64932;SDS011;51446;53.850;10.662;2023-08-01T01:11:44;1.57;;;1.00;;
64932;SDS011;51446;53.850;10.662;2023-08-01T01:14:10;1.15;;;0.90;;
64932;SDS011;51446;53.850;10.662;2023-08-01T01:16:35;1.35;;;1.00;;
64932;SDS011;51446;53.850;10.662;2023-08-01T01:19:01;1.10;;;1.00;;
64932;SDS011;51446;53.850;10.662;2023-08-01T01:21:27;1.10;;;1.00;;
64932;SDS011;51446;53.850;10.662;2023-08-01T01:23:53;0.80;;;0.80;;
64932;SDS011;51446;53.850;10.662;2023-08-01T01:26:19;2.50;;;1.23;;
64932;SDS011;51446;53.850;10.662;2023-08-01T01:28:49;1.50;;;1.10;;
64932;SDS011;51446;53.850;10.662;2023-08-01T01:31:16;1.85;;;1.10;;
64932;SDS011;51446;53.850;10.662;2023-08-01T01:33:41;2.07;;;1.20;;
64932;SDS011;51446;53.850;10.662;2023-08-01T01:36:07;1.20;;;1.10;;
64932;SDS011;51446;53.850;10.662;2023-08-01T01:38:32;1.47;;;1.37;;
64932;SDS011;51446;53.850;10.662;2023-08-01T01:40:57;1.70;;;1.60;;
64932;SDS011;51446;53.850;10.662;2023-08-01T01:43:23;1.40;;;1.23;;
64932;SDS011;51446;53.850;10.662;2023-08-01T01:45:48;3.83;;;1.40;;
64932;SDS011;51446;53.850;10.662;2023-08-01T01:48:13;1.50;;;1.30;;
64932;SDS011;51446;53.850;10.662;2023-08-01T01:50:38;2.90;;;1.50;;
64932;SDS011;51446;53.850;10.662;2023-08-01T01:53:04;2.13;;;1.80;;
64932;SDS011;51446;53.850;10.662;2023-08-01T01:55:29;5.17;;;2.00;;
64932;SDS011;51446;53.850;10.662;2023-08-01T01:57:54;3.40;;;2.40;;
64932;SDS011;51446;53.850;10.662;2023-08-01T02:00:19;4.33;;;2.40;;
64932;SDS011;51446;53.850;10.662;2023-08-01T02:02:45;3.93;;;2.63;;
64932;SDS011;51446;53.850;10.662;2023-08-01T02:05:10;2.67;;;2.37;;
64932;SDS011;51446;53.850;10.662;2023-08-01T02:07:35;2.80;;;2.60;;
64932;SDS011;51446;53.850;10.662;2023-08-01T02:10:01;3.90;;;2.80;;
64932;SDS011;51446;53.850;10.662;2023-08-01T02:12:27;3.78;;;2.53;;
64932;SDS011;51446;53.850;10.662;2023-08-01T02:14:52;3.17;;;2.58;;
64932;SDS011;51446;53.850;10.662;2023-08-01T02:17:18;3.27;;;2.17;;
64932;SDS011;51446;53.850;10.662;2023-08-01T02:19:43;3.60;;;2.37;;
64932;SDS011;51446;53.850;10.662;2023-08-01T02:22:08;2.67;;;2.30;;
64932;SDS011;51446;53.850;10.662;2023-08-01T02:24:33;3.83;;;2.33;;
64932;SDS011;51446;53.850;10.662;2023-08-01T02:26:59;2.27;;;2.07;;
64932;SDS011;51446;53.850;10.662;2023-08-01T02:29:24;2.47;;;1.97;;
64932;SDS011;51446;53.850;10.662;2023-08-01T02:31:49;6.00;;;2.20;;
64932;SDS011;51446;53.850;10.662;2023-08-01T02:34:14;4.43;;;1.87;;
64932;SDS011;51446;53.850;10.662;2023-08-01T02:36:40;3.53;;;2.10;;
64932;SDS011;51446;53.850;10.662;2023-08-01T02:39:06;2.93;;;2.13;;
64932;SDS011;51446;53.850;10.662;2023-08-01T02:41:31;3.45;;;2.63;;
64932;SDS011;51446;53.850;10.662;2023-08-01T02:43:56;2.50;;;2.30;;
64932;SDS011;51446;53.850;10.662;2023-08-01T02:46:22;3.03;;;2.40;;
64932;SDS011;51446;53.850;10.662;2023-08-01T02:48:48;5.83;;;2.87;;
64932;SDS011;51446;53.850;10.662;2023-08-01T02:51:13;8.98;;;2.90;;
64932;SDS011;51446;53.850;10.662;2023-08-01T02:53:38;4.00;;;3.03;;
64932;SDS011;51446;53.850;10.662;2023-08-01T02:56:06;5.97;;;3.17;;
64932;SDS011;51446;53.850;10.662;2023-08-01T02:58:33;5.70;;;3.10;;
64932;SDS011;51446;53.850;10.662;2023-08-01T03:00:59;4.60;;;3.53;;
64932;SDS011;51446;53.850;10.662;2023-08-01T03:03:24;3.70;;;2.90;;
64932;SDS011;51446;53.850;10.662;2023-08-01T03:05:49;6.33;;;3.23;;
64932;SDS011;51446;53.850;10.662;2023-08-01T03:08:14;5.13;;;3.37;;
64932;SDS011;51446;53.850;10.662;2023-08-01T03:10:40;3.70;;;3.30;;
64932;SDS011;51446;53.850;10.662;2023-08-01T03:13:05;7.27;;;3.57;;
64932;SDS011;51446;53.850;10.662;2023-08-01T03:15:31;7.23;;;3.53;;
64932;SDS011;51446;53.850;10.662;2023-08-01T03:17:56;4.25;;;3.60;;
64932;SDS011;51446;53.850;10.662;2023-08-01T03:20:22;4.40;;;4.00;;
64932;SDS011;51446;53.850;10.662;2023-08-01T03:22:47;4.53;;;4.10;;
64932;SDS011;51446;53.850;10.662;2023-08-01T03:25:13;5.00;;;4.40;;
64932;SDS011;51446;53.850;10.662;2023-08-01T03:27:38;5.43;;;4.00;;
64932;SDS011;51446;53.850;10.662;2023-08-01T03:30:03;6.05;;;4.30;;
64932;SDS011;51446;53.850;10.662;2023-08-01T03:32:29;7.10;;;4.80;;
64932;SDS011;51446;53.850;10.662;2023-08-01T03:34:55;11.38;;;5.45;;
64932;SDS011;51446;53.850;10.662;2023-08-01T03:37:20;5.83;;;4.70;;
64932;SDS011;51446;53.850;10.662;2023-08-01T03:39:45;9.23;;;5.47;;
64932;SDS011;51446;53.850;10.662;2023-08-01T03:42:11;8.93;;;5.90;;
64932;SDS011;51446;53.850;10.662;2023-08-01T03:44:36;8.17;;;5.90;;
64932;SDS011;51446;53.850;10.662;2023-08-01T03:47:01;9.10;;;5.00;;
64932;SDS011;51446;53.850;10.662;2023-08-01T03:49:27;8.27;;;6.43;;
64932;SDS011;51446;53.850;10.662;2023-08-01T03:51:52;9.43;;;6.60;;
64932;SDS011;51446;53.850;10.662;2023-08-01T03:54:17;7.87;;;6.03;;
64932;SDS011;51446;53.850;10.662;2023-08-01T03:56:42;9.87;;;7.13;;
64932;SDS011;51446;53.850;10.662;2023-08-01T03:59:13;9.23;;;6.97;;
64932;SDS011;51446;53.850;10.662;2023-08-01T04:01:39;11.90;;;7.25;;
64932;SDS011;51446;53.850;10.662;2023-08-01T04:04:04;11.75;;;7.60;;
64932;SDS011;51446;53.850;10.662;2023-08-01T04:06:29;8.90;;;6.90;;
64932;SDS011;51446;53.850;10.662;2023-08-01T04:08:55;10.20;;;7.10;;
64932;SDS011;51446;53.850;10.662;2023-08-01T04:11:21;8.85;;;7.53;;
64932;SDS011;51446;53.850;10.662;2023-08-01T04:13:47;9.50;;;6.97;;
64932;SDS011;51446;53.850;10.662;2023-08-01T04:16:12;8.17;;;6.73;;
64932;SDS011;51446;53.850;10.662;2023-08-01T04:18:37;10.17;;;6.93;;
64932;SDS011;51446;53.850;10.662;2023-08-01T04:21:03;12.37;;;7.20;;
64932;SDS011;51446;53.850;10.662;2023-08-01T04:23:28;8.93;;;7.07;;
64932;SDS011;51446;53.850;10.662;2023-08-01T04:25:53;12.53;;;7.23;;
64932;SDS011;51446;53.850;10.662;2023-08-01T04:28:18;15.27;;;7.93;;
64932;SDS011;51446;53.850;10.662;2023-08-01T04:30:48;10.77;;;6.93;;
64932;SDS011;51446;53.850;10.662;2023-08-01T04:33:14;10.23;;;6.85;;
64932;SDS011;51446;53.850;10.662;2023-08-01T04:35:39;9.57;;;7.30;;
64932;SDS011;51446;53.850;10.662;2023-08-01T04:38:04;10.57;;;7.10;;
64932;SDS011;51446;53.850;10.662;2023-08-01T04:40:30;11.00;;;6.87;;
64932;SDS011;51446;53.850;10.662;2023-08-01T04:42:55;12.40;;;7.47;;
64932;SDS011;51446;53.850;10.662;2023-08-01T04:45:21;11.00;;;7.40;;
64932;SDS011;51446;53.850;10.662;2023-08-01T04:47:46;10.53;;;7.93;;
64932;SDS011;51446;53.850;10.662;2023-08-01T04:50:11;14.30;;;7.33;;
64932;SDS011;51446;53.850;10.662;2023-08-01T04:52:37;10.60;;;7.60;;
64932;SDS011;51446;53.850;10.662;2023-08-01T04:55:02;11.17;;;7.10;;
64932;SDS011;51446;53.850;10.662;2023-08-01T04:57:28;10.73;;;7.60;;
64932;SDS011;51446;53.850;10.662;2023-08-01T04:59:53;10.97;;;7.07;;
64932;SDS011;51446;53.850;10.662;2023-08-01T05:02:18;14.53;;;7.60;;
64932;SDS011;51446;53.850;10.662;2023-08-01T05:04:44;11.00;;;7.10;;
64932;SDS011;51446;53.850;10.662;2023-08-01T05:07:09;11.27;;;7.13;;
64932;SDS011;51446;53.850;10.662;2023-08-01T05:09:34;10.23;;;7.60;;
64932;SDS011;51446;53.850;10.662;2023-08-01T05:11:59;10.40;;;7.47;;
64932;SDS011;51446;53.850;10.662;2023-08-01T05:14:25;12.20;;;8.00;;
64932;SDS011;51446;53.850;10.662;2023-08-01T05:16:50;10.87;;;7.60;;
64932;SDS011;51446;53.850;10.662;2023-08-01T05:19:15;13.53;;;7.70;;
64932;SDS011;51446;53.850;10.662;2023-08-01T05:21:40;12.07;;;7.80;;
64932;SDS011;51446;53.850;10.662;2023-08-01T05:24:06;10.93;;;8.40;;
64932;SDS011;51446;53.850;10.662;2023-08-01T05:26:31;12.77;;;7.63;;
64932;SDS011;51446;53.850;10.662;2023-08-01T05:28:56;15.23;;;8.33;;
64932;SDS011;51446;53.850;10.662;2023-08-01T05:31:21;11.73;;;8.37;;
64932;SDS011;51446;53.850;10.662;2023-08-01T05:33:47;9.80;;;7.97;;
64932;SDS011;51446;53.850;10.662;2023-08-01T05:36:12;9.87;;;7.67;;
64932;SDS011;51446;53.850;10.662;2023-08-01T05:38:37;14.63;;;7.80;;
64932;SDS011;51446;53.850;10.662;2023-08-01T05:41:03;12.57;;;7.87;;
64932;SDS011;51446;53.850;10.662;2023-08-01T05:43:28;11.73;;;8.07;;
64932;SDS011;51446;53.850;10.662;2023-08-01T05:45:53;12.73;;;8.23;;
64932;SDS011;51446;53.850;10.662;2023-08-01T05:48:18;12.07;;;7.63;;
64932;SDS011;51446;53.850;10.662;2023-08-01T05:50:44;11.07;;;7.70;;
64932;SDS011;51446;53.850;10.662;2023-08-01T05:53:09;10.07;;;7.30;;
64932;SDS011;51446;53.850;10.662;2023-08-01T05:55:34;13.87;;;7.43;;
64932;SDS011;51446;53.850;10.662;2023-08-01T05:58:00;10.63;;;7.87;;
64932;SDS011;51446;53.850;10.662;2023-08-01T06:00:25;11.37;;;7.07;;
64932;SDS011;51446;53.850;10.662;2023-08-01T06:02:50;14.97;;;7.30;;
64932;SDS011;51446;53.850;10.662;2023-08-01T06:05:15;10.47;;;7.60;;
64932;SDS011;51446;53.850;10.662;2023-08-01T06:07:41;12.83;;;7.97;;
64932;SDS011;51446;53.850;10.662;2023-08-01T06:10:06;10.07;;;7.30;;
64932;SDS011;51446;53.850;10.662;2023-08-01T06:12:32;8.77;;;6.75;;
64932;SDS011;51446;53.850;10.662;2023-08-01T06:14:57;12.17;;;6.37;;
64932;SDS011;51446;53.850;10.662;2023-08-01T06:17:22;11.63;;;7.77;;
64932;SDS011;51446;53.850;10.662;2023-08-01T06:19:48;11.03;;;6.93;;
64932;SDS011;51446;53.850;10.662;2023-08-01T06:22:14;12.90;;;6.80;;
64932;SDS011;51446;53.850;10.662;2023-08-01T06:24:40;8.97;;;6.33;;
64932;SDS011;51446;53.850;10.662;2023-08-01T06:27:05;8.03;;;6.00;;
64932;SDS011;51446;53.850;10.662;2023-08-01T06:29:31;10.60;;;6.47;;
64932;SDS011;51446;53.850;10.662;2023-08-01T06:31:56;9.75;;;6.38;;
64932;SDS011;51446;53.850;10.662;2023-08-01T06:34:21;7.87;;;6.43;;
64932;SDS011;51446;53.850;10.662;2023-08-01T06:36:47;8.07;;;6.67;;
64932;SDS011;51446;53.850;10.662;2023-08-01T06:39:13;11.43;;;6.47;;
64932;SDS011;51446;53.850;10.662;2023-08-01T06:41:38;9.07;;;6.00;;
64932;SDS011;51446;53.850;10.662;2023-08-01T06:44:03;11.93;;;6.13;;
64932;SDS011;51446;53.850;10.662;2023-08-01T06:46:28;9.40;;;6.03;;
64932;SDS011;51446;53.850;10.662;2023-08-01T06:48:54;8.70;;;5.97;;
64932;SDS011;51446;53.850;10.662;2023-08-01T06:51:19;8.27;;;5.60;;
64932;SDS011;51446;53.850;10.662;2023-08-01T06:53:44;9.07;;;5.23;;
64932;SDS011;51446;53.850;10.662;2023-08-01T06:56:09;7.07;;;4.30;;
64932;SDS011;51446;53.850;10.662;2023-08-01T06:58:35;9.97;;;4.17;;
64932;SDS011;51446;53.850;10.662;2023-08-01T07:01:00;8.73;;;4.03;;
64932;SDS011;51446;53.850;10.662;2023-08-01T07:03:25;7.60;;;4.17;;
64932;SDS011;51446;53.850;10.662;2023-08-01T07:05:50;10.03;;;4.13;;
64932;SDS011;51446;53.850;10.662;2023-08-01T07:08:16;10.47;;;4.53;;
64932;SDS011;51446;53.850;10.662;2023-08-01T07:10:41;9.87;;;3.90;;
64932;SDS011;51446;53.850;10.662;2023-08-01T07:13:06;9.57;;;4.37;;
64932;SDS011;51446;53.850;10.662;2023-08-01T07:15:32;8.60;;;4.07;;
64932;SDS011;51446;53.850;10.662;2023-08-01T07:17:57;6.77;;;3.90;;
64932;SDS011;51446;53.850;10.662;2023-08-01T07:20:22;8.57;;;4.03;;
64932;SDS011;51446;53.850;10.662;2023-08-01T07:22:48;7.68;;;3.72;;
64932;SDS011;51446;53.850;10.662;2023-08-01T07:25:13;10.03;;;4.10;;
64932;SDS011;51446;53.850;10.662;2023-08-01T07:27:38;6.27;;;3.50;;
64932;SDS011;51446;53.850;10.662;2023-08-01T07:30:04;9.17;;;4.03;;
64932;SDS011;51446;53.850;10.662;2023-08-01T07:32:30;8.55;;;4.60;;
64932;SDS011;51446;53.850;10.662;2023-08-01T07:34:56;5.50;;;4.00;;
64932;SDS011;51446;53.850;10.662;2023-08-01T07:37:21;7.37;;;3.97;;
64932;SDS011;51446;53.850;10.662;2023-08-01T07:39:46;11.82;;;4.25;;
64932;SDS011;51446;53.850;10.662;2023-08-01T07:42:12;7.87;;;3.93;;
64932;SDS011;51446;53.850;10.662;2023-08-01T07:44:37;7.17;;;3.80;;
64932;SDS011;51446;53.850;10.662;2023-08-01T07:47:02;7.17;;;3.73;;
64932;SDS011;51446;53.850;10.662;2023-08-01T07:49:28;10.03;;;4.20;;
64932;SDS011;51446;53.850;10.662;2023-08-01T07:51:53;7.45;;;4.00;;
64932;SDS011;51446;53.850;10.662;2023-08-01T07:54:19;9.03;;;3.93;;
64932;SDS011;51446;53.850;10.662;2023-08-01T07:56:44;8.80;;;3.83;;
64932;SDS011;51446;53.850;10.662;2023-08-01T07:59:10;7.25;;;4.20;;
64932;SDS011;51446;53.850;10.662;2023-08-01T08:01:36;7.63;;;3.40;;
64932;SDS011;51446;53.850;10.662;2023-08-01T08:04:01;6.10;;;3.43;;
64932;SDS011;51446;53.850;10.662;2023-08-01T08:06:26;6.07;;;3.60;;
64932;SDS011;51446;53.850;10.662;2023-08-01T08:08:51;4.83;;;3.03;;
64932;SDS011;51446;53.850;10.662;2023-08-01T08:11:17;8.50;;;3.47;;
64932;SDS011;51446;53.850;10.662;2023-08-01T08:13:42;8.83;;;3.50;;
64932;SDS011;51446;53.850;10.662;2023-08-01T08:16:07;8.17;;;3.17;;
64932;SDS011;51446;53.850;10.662;2023-08-01T08:18:33;8.07;;;3.43;;
64932;SDS011;51446;53.850;10.662;2023-08-01T08:20:58;7.50;;;3.73;;
64932;SDS011;51446;53.850;10.662;2023-08-01T08:23:23;5.63;;;3.13;;
64932;SDS011;51446;53.850;10.662;2023-08-01T08:25:49;4.67;;;2.60;;
64932;SDS011;51446;53.850;10.662;2023-08-01T08:28:16;6.37;;;2.80;;
64932;SDS011;51446;53.850;10.662;2023-08-01T08:30:51;5.18;;;2.80;;
64932;SDS011;51446;53.850;10.662;2023-08-01T08:33:20;6.77;;;2.53;;
64932;SDS011;51446;53.850;10.662;2023-08-01T08:35:46;4.10;;;2.50;;
64932;SDS011;51446;53.850;10.662;2023-08-01T08:38:11;5.33;;;2.87;;
64932;SDS011;51446;53.850;10.662;2023-08-01T08:40:37;7.37;;;2.93;;
64932;SDS011;51446;53.850;10.662;2023-08-01T08:43:06;5.65;;;2.78;;
64932;SDS011;51446;53.850;10.662;2023-08-01T08:45:34;4.35;;;2.42;;
64932;SDS011;51446;53.850;10.662;2023-08-01T08:48:01;6.35;;;2.63;;
64932;SDS011;51446;53.850;10.662;2023-08-01T08:50:35;4.00;;;2.23;;
64932;SDS011;51446;53.850;10.662;2023-08-01T08:53:01;5.03;;;2.17;;
64932;SDS011;51446;53.850;10.662;2023-08-01T08:55:26;5.07;;;1.77;;
64932;SDS011;51446;53.850;10.662;2023-08-01T08:57:53;5.47;;;1.83;;
64932;SDS011;51446;53.850;10.662;2023-08-01T09:00:21;9.17;;;2.20;;
64932;SDS011;51446;53.850;10.662;2023-08-01T09:02:47;4.57;;;1.80;;
64932;SDS011;51446;53.850;10.662;2023-08-01T09:05:13;9.05;;;2.10;;
64932;SDS011;51446;53.850;10.662;2023-08-01T09:07:39;3.90;;;1.87;;
64932;SDS011;51446;53.850;10.662;2023-08-01T09:10:08;5.70;;;2.10;;
64932;SDS011;51446;53.850;10.662;2023-08-01T09:12:34;5.53;;;1.80;;
64932;SDS011;51446;53.850;10.662;2023-08-01T09:14:59;5.75;;;1.80;;
64932;SDS011;51446;53.850;10.662;2023-08-01T09:17:25;4.90;;;1.67;;
64932;SDS011;51446;53.850;10.662;2023-08-01T09:19:54;4.80;;;1.80;;
64932;SDS011;51446;53.850;10.662;2023-08-01T09:22:21;6.15;;;1.83;;
64932;SDS011;51446;53.850;10.662;2023-08-01T09:24:51;4.93;;;1.90;;
64932;SDS011;51446;53.850;10.662;2023-08-01T09:27:17;7.23;;;1.90;;
64932;SDS011;51446;53.850;10.662;2023-08-01T09:29:42;5.93;;;2.10;;
64932;SDS011;51446;53.850;10.662;2023-08-01T09:32:12;5.05;;;2.08;;
64932;SDS011;51446;53.850;10.662;2023-08-01T09:34:39;5.97;;;1.83;;
64932;SDS011;51446;53.850;10.662;2023-08-01T09:37:04;4.43;;;2.00;;
64932;SDS011;51446;53.850;10.662;2023-08-01T09:39:29;4.73;;;1.97;;
64932;SDS011;51446;53.850;10.662;2023-08-01T09:41:56;4.95;;;1.77;;
64932;SDS011;51446;53.850;10.662;2023-08-01T09:44:22;2.88;;;1.50;;
64932;SDS011;51446;53.850;10.662;2023-08-01T09:47:03;4.40;;;1.70;;
64932;SDS011;51446;53.850;10.662;2023-08-01T09:49:29;4.75;;;1.70;;
64932;SDS011;51446;53.850;10.662;2023-08-01T09:51:56;3.47;;;1.65;;
64932;SDS011;51446;53.850;10.662;2023-08-01T09:54:22;2.70;;;1.50;;
64932;SDS011;51446;53.850;10.662;2023-08-01T09:56:49;5.25;;;2.20;;
64932;SDS011;51446;53.850;10.662;2023-08-01T09:59:18;5.55;;;1.88;;
64932;SDS011;51446;53.850;10.662;2023-08-01T10:01:51;8.07;;;1.80;;
64932;SDS011;51446;53.850;10.662;2023-08-01T10:04:23;5.65;;;1.80;;
64932;SDS011;51446;53.850;10.662;2023-08-01T10:06:56;5.32;;;1.60;;
64932;SDS011;51446;53.850;10.662;2023-08-01T10:09:24;4.13;;;1.45;;
64932;SDS011;51446;53.850;10.662;2023-08-01T10:11:50;2.83;;;1.48;;
64932;SDS011;51446;53.850;10.662;2023-08-01T10:14:21;5.17;;;1.60;;
64932;SDS011;51446;53.850;10.662;2023-08-01T10:16:47;4.20;;;1.50;;
64932;SDS011;51446;53.850;10.662;2023-08-01T10:19:13;5.10;;;1.38;;
64932;SDS011;51446;53.850;10.662;2023-08-01T10:21:40;2.93;;;1.43;;
64932;SDS011;51446;53.850;10.662;2023-08-01T10:24:06;2.45;;;1.83;;
64932;SDS011;51446;53.850;10.662;2023-08-01T10:26:32;5.32;;;2.15;;
64932;SDS011;51446;53.850;10.662;2023-08-01T10:28:58;5.90;;;1.70;;
64932;SDS011;51446;53.850;10.662;2023-08-01T10:31:25;4.22;;;1.98;;
64932;SDS011;51446;53.850;10.662;2023-08-01T10:33:50;3.63;;;2.00;;
64932;SDS011;51446;53.850;10.662;2023-08-01T10:39:01;4.35;;;1.52;;
64932;SDS011;51446;53.850;10.662;2023-08-01T10:49:17;3.53;;;1.40;;
64932;SDS011;51446;53.850;10.662;2023-08-01T10:51:43;2.25;;;1.20;;
64932;SDS011;51446;53.850;10.662;2023-08-01T10:56:50;1.50;;;0.82;;
64932;SDS011;51446;53.850;10.662;2023-08-01T10:59:17;2.03;;;1.20;;
64932;SDS011;51446;53.850;10.662;2023-08-01T11:01:50;3.05;;;1.00;;
64932;SDS011;51446;53.850;10.662;2023-08-01T11:04:17;3.45;;;1.00;;
64932;SDS011;51446;53.850;10.662;2023-08-01T11:06:45;3.08;;;0.98;;
64932;SDS011;51446;53.850;10.662;2023-08-01T11:09:24;1.65;;;0.93;;
64932;SDS011;51446;53.850;10.662;2023-08-01T11:11:53;3.23;;;1.00;;
64932;SDS011;51446;53.850;10.662;2023-08-01T11:14:20;1.55;;;0.80;;
64932;SDS011;51446;53.850;10.662;2023-08-01T11:16:47;2.65;;;0.80;;
64932;SDS011;51446;53.850;10.662;2023-08-01T11:19:20;3.38;;;1.10;;
64932;SDS011;51446;53.850;10.662;2023-08-01T11:21:47;2.50;;;1.10;;
64932;SDS011;51446;53.850;10.662;2023-08-01T11:24:13;3.80;;;0.80;;
64932;SDS011;51446;53.850;10.662;2023-08-01T11:26:42;2.23;;;0.90;;
64932;SDS011;51446;53.850;10.662;2023-08-01T11:29:09;2.33;;;0.93;;
64932;SDS011;51446;53.850;10.662;2023-08-01T11:31:36;1.50;;;0.90;;
64932;SDS011;51446;53.850;10.662;2023-08-01T11:34:01;3.40;;;0.80;;
64932;SDS011;51446;53.850;10.662;2023-08-01T11:36:28;3.37;;;0.70;;
64932;SDS011;51446;53.850;10.662;2023-08-01T11:38:55;2.08;;;0.57;;
64932;SDS011;51446;53.850;10.662;2023-08-01T11:41:23;0.80;;;0.60;;
64932;SDS011;51446;53.850;10.662;2023-08-01T11:43:50;1.33;;;0.70;;
64932;SDS011;51446;53.850;10.662;2023-08-01T11:46:16;1.75;;;0.70;;
64932;SDS011;51446;53.850;10.662;2023-08-01T11:48:45;4.17;;;1.13;;
64932;SDS011;51446;53.850;10.662;2023-08-01T11:51:17;2.33;;;0.95;;
64932;SDS011;51446;53.850;10.662;2023-08-01T11:53:43;5.87;;;1.23;;
64932;SDS011;51446;53.850;10.662;2023-08-01T11:56:08;4.20;;;1.30;;
64932;SDS011;51446;53.850;10.662;2023-08-01T11:58:44;2.85;;;1.15;;
64932;SDS011;51446;53.850;10.662;2023-08-01T12:01:11;5.67;;;1.03;;
64932;SDS011;51446;53.850;10.662;2023-08-01T12:06:16;2.40;;;1.10;;
64932;SDS011;51446;53.850;10.662;2023-08-01T12:08:43;6.22;;;1.20;;
64932;SDS011;51446;53.850;10.662;2023-08-01T12:11:23;2.38;;;0.90;;
64932;SDS011;51446;53.850;10.662;2023-08-01T12:14:00;1.40;;;0.75;;
64932;SDS011;51446;53.850;10.662;2023-08-01T12:16:25;2.20;;;1.00;;
64932;SDS011;51446;53.850;10.662;2023-08-01T12:18:51;2.70;;;1.00;;
64932;SDS011;51446;53.850;10.662;2023-08-01T12:21:16;2.83;;;0.93;;
64932;SDS011;51446;53.850;10.662;2023-08-01T12:23:41;4.87;;;0.90;;
64932;SDS011;51446;53.850;10.662;2023-08-01T12:26:06;2.43;;;0.77;;
64932;SDS011;51446;53.850;10.662;2023-08-01T12:28:32;4.27;;;1.00;;
64932;SDS011;51446;53.850;10.662;2023-08-01T12:30:57;2.67;;;1.00;;
64932;SDS011;51446;53.850;10.662;2023-08-01T12:33:23;3.42;;;0.98;;
64932;SDS011;51446;53.850;10.662;2023-08-01T12:35:49;5.87;;;1.20;;
64932;SDS011;51446;53.850;10.662;2023-08-01T12:38:14;3.67;;;1.07;;
64932;SDS011;51446;53.850;10.662;2023-08-01T12:40:39;1.83;;;1.00;;
64932;SDS011;51446;53.850;10.662;2023-08-01T12:43:05;4.00;;;1.10;;
64932;SDS011;51446;53.850;10.662;2023-08-01T12:45:30;2.42;;;1.05;;
64932;SDS011;51446;53.850;10.662;2023-08-01T12:47:55;1.73;;;0.97;;
64932;SDS011;51446;53.850;10.662;2023-08-01T12:50:20;3.33;;;0.73;;
64932;SDS011;51446;53.850;10.662;2023-08-01T12:52:46;3.33;;;0.80;;
64932;SDS011;51446;53.850;10.662;2023-08-01T12:55:11;2.40;;;0.90;;
64932;SDS011;51446;53.850;10.662;2023-08-01T12:57:36;1.33;;;0.73;;
64932;SDS011;51446;53.850;10.662;2023-08-01T13:00:02;1.43;;;0.90;;
64932;SDS011;51446;53.850;10.662;2023-08-01T13:02:27;1.08;;;0.75;;
64932;SDS011;51446;53.850;10.662;2023-08-01T13:04:53;2.57;;;0.83;;
64932;SDS011;51446;53.850;10.662;2023-08-01T13:07:18;1.57;;;0.83;;
64932;SDS011;51446;53.850;10.662;2023-08-01T13:09:43;2.43;;;0.80;;
64932;SDS011;51446;53.850;10.662;2023-08-01T13:12:10;2.15;;;0.63;;
64932;SDS011;51446;53.850;10.662;2023-08-01T13:14:35;0.93;;;0.50;;
64932;SDS011;51446;53.850;10.662;2023-08-01T13:17:00;2.20;;;0.80;;
64932;SDS011;51446;53.850;10.662;2023-08-01T13:19:27;1.77;;;0.60;;
64932;SDS011;51446;53.850;10.662;2023-08-01T13:21:52;5.60;;;1.10;;
64932;SDS011;51446;53.850;10.662;2023-08-01T13:24:17;1.53;;;0.60;;
64932;SDS011;51446;53.850;10.662;2023-08-01T13:26:42;1.37;;;0.67;;
64932;SDS011;51446;53.850;10.662;2023-08-01T13:29:08;2.17;;;0.60;;
64932;SDS011;51446;53.850;10.662;2023-08-01T13:31:33;0.80;;;0.50;;
64932;SDS011;51446;53.850;10.662;2023-08-01T13:33:58;3.27;;;0.60;;
64932;SDS011;51446;53.850;10.662;2023-08-01T13:36:24;1.13;;;0.40;;
64932;SDS011;51446;53.850;10.662;2023-08-01T13:38:49;1.48;;;0.60;;
64932;SDS011;51446;53.850;10.662;2023-08-01T13:41:15;3.80;;;0.67;;
64932;SDS011;51446;53.850;10.662;2023-08-01T13:43:40;0.83;;;0.40;;
64932;SDS011;51446;53.850;10.662;2023-08-01T13:46:13;1.27;;;0.70;;
64932;SDS011;51446;53.850;10.662;2023-08-01T13:48:40;1.17;;;0.60;;
64932;SDS011;51446;53.850;10.662;2023-08-01T13:51:06;0.70;;;0.40;;
64932;SDS011;51446;53.850;10.662;2023-08-01T13:53:31;1.67;;;0.50;;
64932;SDS011;51446;53.850;10.662;2023-08-01T13:55:57;0.75;;;0.60;;
64932;SDS011;51446;53.850;10.662;2023-08-01T13:58:22;2.13;;;0.80;;
64932;SDS011;51446;53.850;10.662;2023-08-01T14:00:48;3.13;;;0.80;;
64932;SDS011;51446;53.850;10.662;2023-08-01T14:03:13;1.93;;;0.60;;
64932;SDS011;51446;53.850;10.662;2023-08-01T14:05:38;1.07;;;0.53;;
64932;SDS011;51446;53.850;10.662;2023-08-01T14:08:03;2.47;;;0.87;;
64932;SDS011;51446;53.850;10.662;2023-08-01T14:10:30;1.77;;;0.80;;
64932;SDS011;51446;53.850;10.662;2023-08-01T14:12:55;2.40;;;0.60;;
64932;SDS011;51446;53.850;10.662;2023-08-01T14:15:20;1.90;;;0.53;;
64932;SDS011;51446;53.850;10.662;2023-08-01T14:17:46;1.40;;;0.50;;
64932;SDS011;51446;53.850;10.662;2023-08-01T14:20:11;0.63;;;0.50;;
64932;SDS011;51446;53.850;10.662;2023-08-01T14:22:38;1.38;;;0.40;;
64932;SDS011;51446;53.850;10.662;2023-08-01T14:25:04;1.03;;;0.50;;
64932;SDS011;51446;53.850;10.662;2023-08-01T14:27:31;1.08;;;0.50;;
64932;SDS011;51446;53.850;10.662;2023-08-01T14:29:56;0.50;;;0.50;;
64932;SDS011;51446;53.850;10.662;2023-08-01T14:32:21;1.90;;;0.40;;
64932;SDS011;51446;53.850;10.662;2023-08-01T14:34:47;1.27;;;0.50;;
64932;SDS011;51446;53.850;10.662;2023-08-01T14:37:13;1.00;;;0.52;;
64932;SDS011;51446;53.850;10.662;2023-08-01T14:39:39;1.43;;;0.60;;
64932;SDS011;51446;53.850;10.662;2023-08-01T14:42:04;0.80;;;0.40;;